WXM80 ListenWXM80 Stop

You find our weather info also at:

UK Metoffice

WeatherCloud

Weather Underground

Northeastern Weather Network

AWEKAS

Citizen Weather Observer Program (CWOP)

HAMweather, WeatherForYou, PWS Weather


Weather Underground History page Text

Daily Summary for February 3, 2018 Units:  English    Metric   Both
« Previous Day
Next Day »
Daily Weekly Monthly Yearly Custom
  High: Low: Average:
Temperature: 32.0 °F 15.2 °F 24.1 °F
Dew Point: 18.3 °F 3.9 °F 10.6 °F
Humidity: 69 % 42 % 56 %
Wind Speed: 11.4 mph 0.0 mph 4.2 mph
Wind Gust: 18.4 mph - -
Wind:- - WSW
Pressure: 30.20 in 30.09 in -
Precipitation: 0.00 in    
Historical Graphs
 
 
Tabular Data for February 3, 2018
Time Temperature Dew Point Pressure Wind Wind Speed Wind Gust Humidity Rainfall Rate (Hourly)
00:01 16.5 °F 3.9 °F 30.10 in West 6.5 mph 15.0 mph 57 % 0.00 in
00:06 16.4 °F 4.2 °F 30.10 in West 1.8 mph 10.4 mph 58 % 0.00 in
00:11 16.4 °F 4.2 °F 30.10 in WNW 7.6 mph 13.8 mph 58 % 0.00 in
00:16 16.4 °F 4.2 °F 30.10 in WSW 3.5 mph 12.0 mph 58 % 0.00 in
00:21 16.4 °F 4.6 °F 30.10 in NNW 6.7 mph 13.8 mph 59 % 0.00 in
00:26 16.4 °F 4.6 °F 30.11 in NW 9.8 mph 14.0 mph 59 % 0.00 in
00:31 16.4 °F 4.6 °F 30.10 in NW 3.0 mph 9.2 mph 59 % 0.00 in
00:36 16.4 °F 4.6 °F 30.10 in NW 4.2 mph 13.8 mph 59 % 0.00 in
00:41 16.4 °F 5.3 °F 30.10 in West 7.7 mph 16.1 mph 61 % 0.00 in
00:46 16.4 °F 4.9 °F 30.10 in NW 7.1 mph 12.7 mph 60 % 0.00 in
00:51 16.4 °F 5.3 °F 30.10 in NNW 7.0 mph 12.7 mph 61 % 0.00 in
00:56 16.5 °F 5.4 °F 30.09 in WNW 7.9 mph 12.7 mph 61 % 0.00 in
01:01 16.5 °F 5.4 °F 30.09 in WNW 9.4 mph 17.3 mph 61 % 0.00 in
01:06 16.5 °F 5.4 °F 30.09 in WSW 5.8 mph 16.1 mph 61 % 0.00 in
01:11 16.5 °F 5.0 °F 30.10 in NW 5.4 mph 11.5 mph 60 % 0.00 in
01:16 16.5 °F 5.4 °F 30.10 in WNW 6.7 mph 11.0 mph 61 % 0.00 in
01:21 16.5 °F 5.0 °F 30.10 in WNW 6.4 mph 15.0 mph 60 % 0.00 in
01:26 16.5 °F 5.4 °F 30.10 in WNW 7.7 mph 15.0 mph 61 % 0.00 in
01:32 16.4 °F 5.3 °F 30.11 in WNW 3.7 mph 6.9 mph 61 % 0.00 in
01:37 16.5 °F 5.7 °F 30.10 in NNW 6.3 mph 18.4 mph 62 % 0.00 in
01:42 16.5 °F 6.1 °F 30.10 in NW 5.2 mph 9.2 mph 63 % 0.00 in
01:47 16.5 °F 6.1 °F 30.10 in NW 6.6 mph 11.5 mph 63 % 0.00 in
01:52 16.6 °F 6.2 °F 30.11 in NW 10.0 mph 18.4 mph 63 % 0.00 in
01:57 16.6 °F 6.2 °F 30.11 in NNW 5.6 mph 12.7 mph 63 % 0.00 in
02:02 16.6 °F 6.2 °F 30.11 in West 6.2 mph 18.4 mph 63 % 0.00 in
02:07 16.6 °F 6.2 °F 30.12 in NNW 6.9 mph 11.5 mph 63 % 0.00 in
02:12 16.6 °F 6.2 °F 30.12 in NW 6.8 mph 17.3 mph 63 % 0.00 in
02:17 16.6 °F 6.2 °F 30.12 in WNW 6.8 mph 9.2 mph 63 % 0.00 in
02:22 16.6 °F 6.5 °F 30.12 in NW 3.0 mph 3.5 mph 64 % 0.00 in
02:27 16.6 °F 5.8 °F 30.12 in WNW 6.9 mph 10.4 mph 62 % 0.00 in
02:32 16.6 °F 5.8 °F 30.12 in West 11.4 mph 17.3 mph 62 % 0.00 in
02:37 16.5 °F 5.7 °F 30.12 in WNW 4.1 mph 9.2 mph 62 % 0.00 in
02:42 16.5 °F 6.1 °F 30.12 in NW 6.3 mph 11.5 mph 63 % 0.00 in
02:47 16.4 °F 6.0 °F 30.13 in WNW 6.3 mph 11.5 mph 63 % 0.00 in
02:52 16.3 °F 6.2 °F 30.13 in West 4.3 mph 10.4 mph 64 % 0.00 in
02:57 16.3 °F 6.2 °F 30.13 in WSW 3.1 mph 7.0 mph 64 % 0.00 in
03:02 16.3 °F 6.2 °F 30.13 in WNW 6.3 mph 6.3 mph 64 % 0.00 in
03:07 16.2 °F 6.5 °F 30.13 in West 4.7 mph 9.0 mph 65 % 0.00 in
03:13 16.2 °F 6.5 °F 30.13 in West 7.6 mph 16.1 mph 65 % 0.00 in
03:18 16.1 °F 6.1 °F 30.13 in SW 8.3 mph 8.3 mph 64 % 0.00 in
03:23 16.1 °F 6.4 °F 30.14 in West 5.4 mph 14.0 mph 65 % 0.00 in
03:28 16.1 °F 6.4 °F 30.14 in WNW 5.6 mph 11.5 mph 65 % 0.00 in
03:33 16.2 °F 6.5 °F 30.14 in WSW 5.1 mph 10.4 mph 65 % 0.00 in
03:38 16.2 °F 6.5 °F 30.14 in West 3.0 mph 11.5 mph 65 % 0.00 in
03:43 16.2 °F 6.5 °F 30.15 in WNW 5.4 mph 9.2 mph 65 % 0.00 in
03:48 16.2 °F 6.1 °F 30.15 in NW 5.4 mph 8.1 mph 64 % 0.00 in
03:53 16.2 °F 6.1 °F 30.14 in NW 6.5 mph 10.4 mph 64 % 0.00 in
03:58 16.2 °F 5.8 °F 30.14 in NW 5.0 mph 8.0 mph 63 % 0.00 in
04:03 16.2 °F 6.1 °F 30.14 in West 2.9 mph 6.9 mph 64 % 0.00 in
04:08 16.2 °F 6.1 °F 30.14 in West 5.3 mph 11.5 mph 64 % 0.00 in
04:14 16.2 °F 5.8 °F 30.14 in West 1.0 mph 3.5 mph 63 % 0.00 in
04:19 16.3 °F 5.9 °F 30.15 in WNW 5.7 mph 11.5 mph 63 % 0.00 in
04:24 16.3 °F 5.9 °F 30.15 in WSW 5.8 mph 9.2 mph 63 % 0.00 in
04:29 16.3 °F 6.2 °F 30.15 in West 4.9 mph 7.0 mph 64 % 0.00 in
04:34 16.3 °F 5.9 °F 30.15 in WSW 5.9 mph 9.2 mph 63 % 0.00 in
04:39 16.3 °F 5.5 °F 30.15 in SW 5.0 mph 5.8 mph 62 % 0.00 in
04:44 16.4 °F 5.6 °F 30.15 in WSW 4.1 mph 10.4 mph 62 % 0.00 in
04:49 16.4 °F 6.0 °F 30.15 in WSW 5.6 mph 10.4 mph 63 % 0.00 in
04:54 16.4 °F 6.0 °F 30.15 in WSW 2.3 mph 6.9 mph 63 % 0.00 in
04:59 16.5 °F 6.4 °F 30.16 in WSW 1.4 mph 7.0 mph 64 % 0.00 in
05:04 16.5 °F 6.4 °F 30.16 in WSW 6.9 mph 11.5 mph 64 % 0.00 in
05:09 16.5 °F 6.4 °F 30.16 in SW 4.5 mph 10.4 mph 64 % 0.00 in
05:14 16.5 °F 6.1 °F 30.15 in West 2.6 mph 8.1 mph 63 % 0.00 in
05:19 16.6 °F 6.2 °F 30.16 in WNW 4.8 mph 6.9 mph 63 % 0.00 in
05:24 16.6 °F 6.2 °F 30.16 in West 5.7 mph 11.5 mph 63 % 0.00 in
05:29 16.6 °F 6.5 °F 30.16 in SSW 2.6 mph 4.6 mph 64 % 0.00 in
05:34 16.6 °F 6.5 °F 30.16 in WSW 1.3 mph 3.5 mph 64 % 0.00 in
05:40 16.6 °F 6.9 °F 30.16 in SW 3.1 mph 4.0 mph 65 % 0.00 in
05:45 16.6 °F 6.9 °F 30.16 in SW 2.1 mph 4.0 mph 65 % 0.00 in
05:50 16.5 °F 6.8 °F 30.16 in SSW 2.2 mph 4.6 mph 65 % 0.00 in
05:55 16.4 °F 6.7 °F 30.17 in SW 3.6 mph 5.0 mph 65 % 0.00 in
06:00 16.3 °F 6.9 °F 30.17 in SSW 0.9 mph 3.5 mph 66 % 0.00 in
06:05 16.3 °F 6.6 °F 30.17 in SW 0.8 mph 3.5 mph 65 % 0.00 in
06:10 16.2 °F 6.8 °F 30.17 in SW 2.2 mph 4.6 mph 66 % 0.00 in
06:15 16.1 °F 6.7 °F 30.17 in SW 0.1 mph 3.5 mph 66 % 0.00 in
06:25 15.9 °F 6.9 °F 30.17 in SW 2.1 mph 3.5 mph 67 % 0.00 in
06:30 15.9 °F 6.9 °F 30.17 in Calm     67 % 0.00 in
06:35 15.8 °F 6.8 °F 30.17 in SW 0.5 mph 2.3 mph 67 % 0.00 in
06:40 15.7 °F 6.7 °F 30.17 in SW 1.2 mph 3.0 mph 67 % 0.00 in
06:45 15.6 °F 6.6 °F 30.17 in SW 0.5 mph 3.5 mph 67 % 0.00 in
06:50 15.5 °F 6.5 °F 30.17 in SW 0.1 mph   67 % 0.00 in
06:55 15.4 °F 6.7 °F 30.18 in SW 0.5 mph 3.5 mph 68 % 0.00 in
07:00 15.3 °F 6.6 °F 30.18 in SW 1.2 mph 4.0 mph 68 % 0.00 in
07:06 15.2 °F 6.6 °F 30.18 in SW 2.0 mph 5.0 mph 68 % 0.00 in
07:11 15.2 °F 6.5 °F 30.18 in SSW 1.0 mph 4.0 mph 68 % 0.00 in
07:15 15.2 °F 6.5 °F 30.18 in SW 1.0 mph 4.0 mph 68 % 0.00 in
07:21 15.3 °F 6.6 °F 30.18 in SW 5.0 mph 10.0 mph 68 % 0.00 in
07:26 15.4 °F 6.7 °F 30.18 in SSW 3.0 mph 7.0 mph 68 % 0.00 in
07:30 15.6 °F 7.2 °F 30.18 in SW 3.0 mph 8.0 mph 69 % 0.00 in
07:35 15.8 °F 7.1 °F 30.19 in SW 6.0 mph 9.0 mph 68 % 0.00 in
07:41 16.1 °F 7.1 °F 30.19 in SSW 5.0 mph 8.0 mph 67 % 0.00 in
07:45 16.3 °F 7.3 °F 30.19 in SW 2.0 mph 9.0 mph 67 % 0.00 in
07:51 16.6 °F 7.5 °F 30.19 in SW 3.0 mph 6.0 mph 67 % 0.00 in
07:55 17.0 °F 7.5 °F 30.19 in SW 6.0 mph 10.0 mph 66 % 0.00 in
08:01 17.3 °F 7.9 °F 30.19 in SSW 3.0 mph 6.0 mph 66 % 0.00 in
08:06 17.6 °F 8.2 °F 30.19 in SW 5.0 mph 8.0 mph 66 % 0.00 in
08:11 18.0 °F 8.2 °F 30.19 in SSW 3.3 mph 6.0 mph 65 % 0.00 in
08:15 18.3 °F 8.1 °F 30.19 in SW 6.0 mph 8.0 mph 64 % 0.00 in
08:20 18.7 °F 8.2 °F 30.19 in SSW 4.7 mph 9.2 mph 63 % 0.00 in
08:25 19.1 °F 8.6 °F 30.19 in SW 5.0 mph 8.0 mph 63 % 0.00 in
08:30 19.5 °F 8.9 °F 30.19 in SSW 0.7 mph 4.0 mph 63 % 0.00 in
08:36 19.9 °F 9.0 °F 30.19 in SW 5.0 mph 7.0 mph 62 % 0.00 in
08:40 20.4 °F 9.4 °F 30.19 in SW 3.0 mph 7.0 mph 62 % 0.00 in
08:45 20.9 °F 9.5 °F 30.19 in South 1.5 mph 5.8 mph 61 % 0.00 in
08:50 21.4 °F 10.0 °F 30.19 in SW 3.0 mph 12.0 mph 61 % 0.00 in
08:55 22.0 °F 10.2 °F 30.19 in WSW 2.0 mph 9.0 mph 60 % 0.00 in
09:00 22.6 °F 10.0 °F 30.19 in SW 7.2 mph 12.7 mph 58 % 0.00 in
09:06 23.1 °F 10.1 °F 30.19 in WSW 7.0 mph 14.0 mph 57 % 0.00 in
09:10 23.6 °F 10.2 °F 30.18 in WSW 9.0 mph 14.0 mph 56 % 0.00 in
09:15 24.0 °F 10.1 °F 30.18 in WSW 8.0 mph 12.0 mph 55 % 0.00 in
09:20 24.2 °F 9.9 °F 30.18 in WSW 6.0 mph 13.0 mph 54 % 0.00 in
09:25 24.3 °F 10.0 °F 30.18 in WSW 6.0 mph 15.0 mph 54 % 0.00 in
09:31 24.5 °F 10.2 °F 30.18 in WSW 5.0 mph 12.0 mph 54 % 0.00 in
09:36 24.5 °F 9.8 °F 30.19 in WSW 7.0 mph 15.0 mph 53 % 0.00 in
09:41 24.6 °F 9.9 °F 30.18 in WSW 3.0 mph 10.0 mph 53 % 0.00 in
09:45 24.8 °F 10.1 °F 30.19 in West 8.0 mph 13.0 mph 53 % 0.00 in
09:51 25.2 °F 10.4 °F 30.19 in WSW 6.0 mph 13.0 mph 53 % 0.00 in
09:56 25.6 °F 10.8 °F 30.19 in WSW 6.0 mph 12.0 mph 53 % 0.00 in
10:01 25.7 °F 10.0 °F 30.19 in NW 6.0 mph 16.1 mph 51 % 0.00 in
10:06 25.8 °F 10.6 °F 30.19 in WNW 7.9 mph 13.8 mph 52 % 0.00 in
10:11 26.0 °F 10.3 °F 30.19 in WSW 3.3 mph 11.5 mph 51 % 0.00 in
10:16 26.2 °F 10.5 °F 30.19 in WSW 9.1 mph 11.5 mph 51 % 0.00 in
10:21 26.5 °F 10.8 °F 30.19 in WSW 2.0 mph 11.5 mph 51 % 0.00 in
10:26 26.8 °F 11.1 °F 30.19 in WNW 6.6 mph 11.5 mph 51 % 0.00 in
10:31 27.1 °F 11.3 °F 30.19 in WSW 8.4 mph 12.7 mph 51 % 0.00 in
10:36 27.2 °F 11.9 °F 30.20 in SW 5.7 mph 15.0 mph 52 % 0.00 in
10:41 27.4 °F 11.6 °F 30.19 in NW 4.3 mph 10.4 mph 51 % 0.00 in
10:46 27.6 °F 11.4 °F 30.19 in West 9.2 mph 12.7 mph 50 % 0.00 in
10:51 27.8 °F 11.5 °F 30.19 in West 2.7 mph 6.9 mph 50 % 0.00 in
10:56 28.2 °F 11.9 °F 30.18 in SSW 2.5 mph 8.1 mph 50 % 0.00 in
11:01 28.5 °F 11.7 °F 30.18 in SW 5.6 mph 11.5 mph 49 % 0.00 in
11:06 28.7 °F 11.5 °F 30.18 in WSW 4.3 mph 11.5 mph 48 % 0.00 in
11:11 28.8 °F 12.0 °F 30.18 in WSW 6.3 mph 10.4 mph 49 % 0.00 in
11:16 28.7 °F 11.5 °F 30.18 in South 5.0 mph 11.5 mph 48 % 0.00 in
11:21 28.6 °F 11.4 °F 30.18 in WSW 6.0 mph 9.2 mph 48 % 0.00 in
11:27 28.6 °F 11.4 °F 30.17 in SSW 5.6 mph 12.0 mph 48 % 0.00 in
11:32 28.6 °F 12.3 °F 30.17 in West 7.8 mph 12.7 mph 50 % 0.00 in
11:37 28.5 °F 11.3 °F 30.17 in SSW 4.4 mph 10.4 mph 48 % 0.00 in
11:42 28.4 °F 10.7 °F 30.17 in SSW 5.8 mph 13.8 mph 47 % 0.00 in
11:47 28.4 °F 11.2 °F 30.16 in West 3.6 mph 6.0 mph 48 % 0.00 in
11:52 28.5 °F 11.3 °F 30.16 in WNW 1.1 mph 3.5 mph 48 % 0.00 in
11:57 28.5 °F 11.7 °F 30.16 in WNW 3.6 mph 9.2 mph 49 % 0.00 in
12:02 28.6 °F 11.8 °F 30.15 in West 2.6 mph 5.8 mph 49 % 0.00 in
12:07 28.6 °F 10.9 °F 30.15 in West 8.6 mph 11.5 mph 47 % 0.00 in
12:12 28.4 °F 10.7 °F 30.15 in SW 5.9 mph 6.9 mph 47 % 0.00 in
12:17 28.4 °F 10.7 °F 30.15 in West 6.7 mph 12.7 mph 47 % 0.00 in
12:22 28.4 °F 10.7 °F 30.15 in SW 6.2 mph 10.4 mph 47 % 0.00 in
12:27 28.4 °F 11.2 °F 30.15 in WSW 3.3 mph 9.2 mph 48 % 0.00 in
12:32 28.4 °F 11.2 °F 30.14 in WNW 4.9 mph 12.7 mph 48 % 0.00 in
12:37 28.5 °F 11.3 °F 30.14 in SW 5.6 mph 9.2 mph 48 % 0.00 in
12:42 28.7 °F 11.9 °F 30.14 in SSW 3.0 mph 8.1 mph 49 % 0.00 in
12:47 28.8 °F 11.6 °F 30.14 in SW 5.4 mph 11.5 mph 48 % 0.00 in
12:53 29.0 °F 11.3 °F 30.14 in WSW 3.7 mph 7.0 mph 47 % 0.00 in
12:58 29.3 °F 11.5 °F 30.13 in SW 5.0 mph 10.4 mph 47 % 0.00 in
13:03 29.5 °F 12.2 °F 30.13 in SW 1.9 mph 8.1 mph 48 % 0.00 in
13:08 29.6 °F 11.3 °F 30.12 in West 7.2 mph 11.5 mph 46 % 0.00 in
13:13 29.9 °F 11.6 °F 30.12 in SSW 3.9 mph 7.0 mph 46 % 0.00 in
13:18 30.3 °F 12.0 °F 30.12 in WSW 4.1 mph 9.2 mph 46 % 0.00 in
13:23 30.6 °F 11.7 °F 30.12 in WSW 4.0 mph 6.0 mph 45 % 0.00 in
13:28 30.9 °F 13.0 °F 30.12 in SSW 1.5 mph 5.0 mph 47 % 0.00 in
13:33 31.3 °F 12.9 °F 30.11 in SSW 5.6 mph 10.4 mph 46 % 0.00 in
13:38 31.4 °F 12.5 °F 30.11 in SSW 3.1 mph 8.1 mph 45 % 0.00 in
13:43 31.6 °F 12.2 °F 30.11 in WSW 4.0 mph 10.4 mph 44 % 0.00 in
13:48 31.7 °F 12.2 °F 30.11 in WSW 2.1 mph 8.1 mph 44 % 0.00 in
13:53 31.7 °F 12.2 °F 30.11 in WSW 4.7 mph 9.0 mph 44 % 0.00 in
13:58 31.8 °F 11.8 °F 30.11 in SW 2.7 mph 4.6 mph 43 % 0.00 in
14:03 31.9 °F 11.9 °F 30.11 in SW 5.6 mph 8.1 mph 43 % 0.00 in
14:08 32.0 °F 11.5 °F 30.11 in South 7.8 mph 11.5 mph 42 % 0.00 in
14:13 31.9 °F 11.4 °F 30.11 in WSW 4.3 mph 9.2 mph 42 % 0.00 in
14:18 31.7 °F 11.2 °F 30.10 in West 3.5 mph 10.4 mph 42 % 0.00 in
14:23 31.7 °F 11.7 °F 30.10 in West 4.3 mph 5.0 mph 43 % 0.00 in
14:28 31.6 °F 11.6 °F 30.10 in SW 4.4 mph 8.0 mph 43 % 0.00 in
14:34 31.7 °F 12.8 °F 30.10 in SW 1.3 mph 3.5 mph 45 % 0.00 in
14:39 31.6 °F 12.2 °F 30.10 in SSW 3.1 mph 6.0 mph 44 % 0.00 in
14:44 31.5 °F 12.1 °F 30.10 in SW 6.0 mph 11.5 mph 44 % 0.00 in
14:49 31.3 °F 11.9 °F 30.10 in WSW 4.0 mph 5.8 mph 44 % 0.00 in
14:54 31.1 °F 12.2 °F 30.10 in SW 6.7 mph 10.4 mph 45 % 0.00 in
14:59 30.8 °F 11.9 °F 30.10 in SSW 4.8 mph 8.0 mph 45 % 0.00 in
15:04 30.5 °F 11.7 °F 30.10 in SSW 4.8 mph 10.4 mph 45 % 0.00 in
15:09 30.4 °F 12.5 °F 30.10 in SSW 2.8 mph 6.0 mph 47 % 0.00 in
15:14 30.3 °F 12.0 °F 30.10 in SW 3.7 mph 9.2 mph 46 % 0.00 in
15:19 30.1 °F 12.7 °F 30.10 in South 6.3 mph 11.5 mph 48 % 0.00 in
15:24 29.9 °F 12.1 °F 30.10 in West 3.2 mph 6.9 mph 47 % 0.00 in
15:29 29.9 °F 12.6 °F 30.10 in SSW 5.1 mph 11.5 mph 48 % 0.00 in
15:34 29.9 °F 12.6 °F 30.10 in SSW 4.0 mph 8.1 mph 48 % 0.00 in
15:39 29.9 °F 12.6 °F 30.10 in South 6.7 mph 9.2 mph 48 % 0.00 in
15:44 29.8 °F 12.5 °F 30.10 in WSW 4.2 mph 10.4 mph 48 % 0.00 in
15:49 29.8 °F 12.5 °F 30.10 in SW 4.4 mph 7.0 mph 48 % 0.00 in
15:54 29.7 °F 12.4 °F 30.10 in SSW 5.4 mph 8.1 mph 48 % 0.00 in
16:00 29.7 °F 12.4 °F 30.10 in SSW 1.0 mph 4.6 mph 48 % 0.00 in
16:05 29.7 °F 12.4 °F 30.10 in SW 4.6 mph 7.0 mph 48 % 0.00 in
16:10 29.7 °F 12.4 °F 30.10 in SSW 5.3 mph 10.0 mph 48 % 0.00 in
16:15 29.6 °F 12.3 °F 30.10 in SW 2.7 mph 8.1 mph 48 % 0.00 in
16:20 29.6 °F 12.3 °F 30.10 in WSW 6.6 mph 9.2 mph 48 % 0.00 in
16:25 29.5 °F 12.2 °F 30.10 in SW 6.2 mph 11.0 mph 48 % 0.00 in
16:30 29.4 °F 12.1 °F 30.10 in WSW 5.1 mph 8.1 mph 48 % 0.00 in
16:35 29.3 °F 12.5 °F 30.10 in WSW 4.8 mph 11.5 mph 49 % 0.00 in
16:40 29.3 °F 12.9 °F 30.10 in South 3.6 mph 6.0 mph 50 % 0.00 in
16:45 29.2 °F 12.8 °F 30.10 in South 5.2 mph 10.4 mph 50 % 0.00 in
16:50 29.1 °F 12.8 °F 30.11 in SW 4.9 mph 8.1 mph 50 % 0.00 in
16:55 29.0 °F 12.7 °F 30.11 in WSW 3.8 mph 8.1 mph 50 % 0.00 in
17:00 28.9 °F 12.6 °F 30.11 in South 5.7 mph 9.2 mph 50 % 0.00 in
17:05 28.8 °F 12.5 °F 30.11 in South 2.6 mph 7.0 mph 50 % 0.00 in
17:10 28.7 °F 12.4 °F 30.11 in SW 4.9 mph 9.0 mph 50 % 0.00 in
17:15 28.6 °F 12.7 °F 30.11 in South 1.9 mph 4.6 mph 51 % 0.00 in
17:20 28.5 °F 12.6 °F 30.11 in SSW 1.9 mph 6.9 mph 51 % 0.00 in
17:25 28.5 °F 12.6 °F 30.11 in SSW 1.2 mph 5.8 mph 51 % 0.00 in
17:31 28.4 °F 12.6 °F 30.11 in SW 2.7 mph 5.8 mph 51 % 0.00 in
17:36 28.3 °F 12.9 °F 30.11 in SSW 2.0 mph 7.0 mph 52 % 0.00 in
17:41 28.2 °F 12.8 °F 30.11 in SSW 1.0 mph 7.0 mph 52 % 0.00 in
17:46 28.2 °F 12.8 °F 30.12 in SW 1.0 mph 4.0 mph 52 % 0.00 in
17:51 28.1 °F 13.1 °F 30.12 in SW 2.0 mph 6.0 mph 53 % 0.00 in
17:56 28.0 °F 13.1 °F 30.12 in SW 1.0 mph 4.0 mph 53 % 0.00 in
18:01 27.9 °F 13.4 °F 30.13 in SSW 1.2 mph 3.5 mph 54 % 0.00 in
18:06 27.9 °F 13.4 °F 30.12 in SSW 2.0 mph 6.0 mph 54 % 0.00 in
18:11 27.8 °F 13.3 °F 30.13 in SSW 3.0 mph 5.0 mph 54 % 0.00 in
18:16 27.8 °F 13.3 °F 30.12 in SW 2.9 mph 4.0 mph 54 % 0.00 in
18:21 27.7 °F 13.2 °F 30.13 in SW 2.0 mph 5.0 mph 54 % 0.00 in
18:26 27.7 °F 13.2 °F 30.12 in SW 2.0 mph 10.0 mph 54 % 0.00 in
18:31 27.7 °F 13.2 °F 30.13 in Calm   3.0 mph 54 % 0.00 in
18:36 27.6 °F 13.1 °F 30.13 in SW 3.0 mph 5.0 mph 54 % 0.00 in
18:41 27.7 °F 13.2 °F 30.13 in SW 1.0 mph 4.0 mph 54 % 0.00 in
18:46 27.7 °F 13.2 °F 30.13 in SW 2.0 mph 7.0 mph 54 % 0.00 in
18:51 27.6 °F 13.1 °F 30.13 in Calm   3.0 mph 54 % 0.00 in
18:56 27.6 °F 13.5 °F 30.13 in SSW 2.0 mph 4.0 mph 55 % 0.00 in
19:01 27.6 °F 13.5 °F 30.13 in SW 3.5 mph 6.0 mph 55 % 0.00 in
19:06 27.6 °F 13.5 °F 30.13 in SSW 3.0 mph 6.0 mph 55 % 0.00 in
19:11 27.6 °F 13.1 °F 30.13 in SSW 0.7 mph 3.5 mph 54 % 0.00 in
19:16 27.6 °F 13.5 °F 30.13 in SSW 3.0 mph 7.0 mph 55 % 0.00 in
19:21 27.6 °F 13.5 °F 30.13 in SW 2.0 mph 5.0 mph 55 % 0.00 in
19:26 27.6 °F 13.5 °F 30.13 in SSW 2.1 mph 6.9 mph 55 % 0.00 in
19:31 27.6 °F 13.5 °F 30.13 in SW 2.0 mph 7.0 mph 55 % 0.00 in
19:36 27.6 °F 13.5 °F 30.13 in SW 1.0 mph 7.0 mph 55 % 0.00 in
19:41 27.6 °F 13.5 °F 30.13 in SSW 5.0 mph 12.0 mph 55 % 0.00 in
19:46 27.6 °F 13.5 °F 30.13 in SW 2.0 mph 7.0 mph 55 % 0.00 in
19:51 27.6 °F 13.5 °F 30.13 in SSW 5.0 mph 7.0 mph 55 % 0.00 in
19:56 27.7 °F 13.6 °F 30.13 in SSW 1.0 mph 12.0 mph 55 % 0.00 in
20:01 27.8 °F 13.7 °F 30.13 in SW 2.3 mph 3.5 mph 55 % 0.00 in
20:06 27.8 °F 13.7 °F 30.13 in SSW 3.7 mph 5.8 mph 55 % 0.00 in
20:11 27.8 °F 13.7 °F 30.12 in SW 1.3 mph 3.5 mph 55 % 0.00 in
20:16 27.8 °F 14.1 °F 30.12 in SW 1.2 mph 3.5 mph 56 % 0.00 in
20:21 27.8 °F 14.1 °F 30.12 in SSW 4.0 mph 5.8 mph 56 % 0.00 in
20:26 27.8 °F 14.1 °F 30.12 in SW 3.0 mph 4.0 mph 56 % 0.00 in
20:31 27.9 °F 14.2 °F 30.12 in WSW 1.8 mph 3.5 mph 56 % 0.00 in
20:36 27.8 °F 14.5 °F 30.12 in SSW 6.0 mph 9.2 mph 57 % 0.00 in
20:41 27.8 °F 14.5 °F 30.12 in SSW 3.7 mph 6.0 mph 57 % 0.00 in
20:46 27.9 °F 14.6 °F 30.12 in SSW 3.4 mph 4.6 mph 57 % 0.00 in
20:51 27.9 °F 14.6 °F 30.12 in SW 1.8 mph 4.0 mph 57 % 0.00 in
20:56 27.9 °F 14.6 °F 30.12 in SW 0.7 mph 2.3 mph 57 % 0.00 in
21:01 27.9 °F 15.0 °F 30.12 in SW 1.0 mph 3.5 mph 58 % 0.00 in
21:06 27.9 °F 15.0 °F 30.12 in SSW 1.7 mph 3.5 mph 58 % 0.00 in
21:11 27.9 °F 15.0 °F 30.12 in SSW 6.5 mph 9.2 mph 58 % 0.00 in
21:16 28.0 °F 15.5 °F 30.12 in SSW 4.5 mph 10.4 mph 59 % 0.00 in
21:21 28.1 °F 15.6 °F 30.13 in SW 3.8 mph 6.9 mph 59 % 0.00 in
21:26 28.1 °F 15.6 °F 30.12 in SSW 2.8 mph 4.6 mph 59 % 0.00 in
21:32 28.2 °F 15.7 °F 30.13 in SW 3.0 mph 6.9 mph 59 % 0.00 in
21:37 28.3 °F 15.8 °F 30.13 in SW 3.6 mph 6.9 mph 59 % 0.00 in
21:42 28.3 °F 16.2 °F 30.13 in SSW 3.5 mph 5.8 mph 60 % 0.00 in
21:47 28.3 °F 16.2 °F 30.12 in SSW 3.4 mph 6.9 mph 60 % 0.00 in
21:52 28.3 °F 16.2 °F 30.12 in SW 3.0 mph 8.1 mph 60 % 0.00 in
21:57 28.3 °F 16.2 °F 30.12 in SSW 3.2 mph 10.4 mph 60 % 0.00 in
22:02 28.3 °F 16.6 °F 30.12 in SSW 3.2 mph 8.1 mph 61 % 0.00 in
22:07 28.4 °F 16.7 °F 30.12 in SSW 5.6 mph 9.2 mph 61 % 0.00 in
22:12 28.5 °F 16.4 °F 30.12 in WSW 3.6 mph 5.0 mph 60 % 0.00 in
22:17 28.5 °F 16.4 °F 30.12 in SSW 5.2 mph 11.5 mph 60 % 0.00 in
22:22 28.7 °F 16.6 °F 30.12 in SSW 6.2 mph 10.4 mph 60 % 0.00 in
22:27 28.8 °F 16.3 °F 30.12 in SSW 4.2 mph 7.0 mph 59 % 0.00 in
22:32 28.9 °F 16.4 °F 30.12 in SSW 7.8 mph 11.5 mph 59 % 0.00 in
22:37 29.0 °F 16.4 °F 30.12 in South 6.3 mph 9.2 mph 59 % 0.00 in
22:42 29.2 °F 16.2 °F 30.12 in SW 1.6 mph 6.9 mph 58 % 0.00 in
22:47 29.2 °F 16.2 °F 30.12 in SSW 3.5 mph 9.2 mph 58 % 0.00 in
22:52 29.3 °F 16.3 °F 30.11 in SSW 7.4 mph 11.5 mph 58 % 0.00 in
22:57 29.4 °F 16.4 °F 30.12 in SSE 4.4 mph 5.8 mph 58 % 0.00 in
23:02 29.4 °F 16.8 °F 30.12 in SW 7.4 mph 11.5 mph 59 % 0.00 in
23:08 29.5 °F 16.5 °F 30.11 in SW 3.3 mph 10.4 mph 58 % 0.00 in
23:13 29.6 °F 17.0 °F 30.12 in SSW 4.6 mph 6.0 mph 59 % 0.00 in
23:18 29.6 °F 17.0 °F 30.11 in SSW 4.8 mph 8.1 mph 59 % 0.00 in
23:23 29.7 °F 17.1 °F 30.11 in SW 4.1 mph 7.0 mph 59 % 0.00 in
23:28 29.7 °F 17.1 °F 30.11 in SSE 4.4 mph 7.0 mph 59 % 0.00 in
23:33 29.8 °F 17.2 °F 30.10 in SW 3.6 mph 4.6 mph 59 % 0.00 in
23:38 29.8 °F 17.2 °F 30.10 in SSW 3.9 mph 8.1 mph 59 % 0.00 in
23:43 29.9 °F 17.7 °F 30.10 in South 3.1 mph 8.0 mph 60 % 0.00 in
23:48 29.9 °F 17.7 °F 30.10 in South 2.4 mph 4.6 mph 60 % 0.00 in
23:53 30.0 °F 17.8 °F 30.11 in SSW 4.1 mph 7.0 mph 60 % 0.00 in
23:58 30.1 °F 18.3 °F 30.10 in SW 4.7 mph 6.9 mph 61 % 0.00 in
Crab Meadow Weather
Compliments of Weather Underground - 3 mb

Script developed by  Jim McMurry - jmcmurry@mwt.net Adapted for the template by  Wim van der Kuil - Leuven-Template.eu

Lightning: Lightning can strike the same place twice and sometimes many times. The Empire State Building in New York City is struck an average of 23 times a year. During one thunderstorm it was struck 8 times in 24 minutes.